LPFL/FLW METAR and TAF weather

Enter ICAO airport designator
Station Type Date Time Source
LPFL METAR 2022/01/29 14:00 UTC NOAA

LPFL 291400Z VRB03KT 9999 FEW025 16/10 Q1032


Station Type Date Time Source
LPFL Decoded METAR 2022/01/29 14:00 UTC NOAA

Flores Acores , Portugal (LPFL) 39-27N 031-08W 29M
Jan 29, 2022 - 09:00 AM EST / 2022.01.29 1400 UTC
Wind: Variable at 3 MPH (3 KT):0
Visibility: greater than 7 mile(s):0
Sky conditions: mostly clear
Temperature: 60 F (16 C)
Dew Point: 50 F (10 C)
Relative Humidity: 67%
Pressure (altimeter): 30.47 in. Hg (1032 hPa)
ob: LPFL 291400Z VRB03KT 9999 FEW025 16/10 Q1032
cycle: 14

Station Type Date Time Source
LPFL TAF UTC NOAA

Error!

Example: see airport list